»·PEaware :: N138AR L52-L88

N138AR :: L52-L88

FLIGHT INFORMATION

Flight Status: Arrived
Operator: Privately registered:
United States
More flights under this callsign
Pilot: Joshua R. (5296)
Aircraft: CESSNA 172 SKYHAWK
(C172)
More flights by this aircraft type
Origin: L52 Oceano Co
United States
Destination: L88 New Cuyama
United States
More flights between these airports :: More routes between these airports
Route: WYNRR
File this flight plan on PilotEdge
Remarks:
Altitude:
(Current/Filed)
5,500ft
Speed:
(Current/Filed)
110kts
Departed: 13-Nov-23 02:45 PM
Arrived: 13-Nov-23 03:17 PM
Distance/Time
Traveled:
47nm/0:31
Distance/Time
To Go:
Arrived

Flight Plot

Page will automatically refresh every two minutes.

Flight plan parsing failed; only flown route is shown


Map Options




Map Legend


Flown Route
Filed Route
Departure Airport
Arrival Airport
Navaid (VOR, NDB)
Fix

Horizontal Profiles

Position Reports

Time Latitude Longitude Heading Altitude Ground
Speed
13-Nov-23 14:23 35.103070 -120.624058 208 25ft 0kts
13-Nov-23 14:24 35.103070 -120.624058 208 25ft 0kts
13-Nov-23 14:25 35.103070 -120.624058 208 24ft 0kts
13-Nov-23 14:26 35.103070 -120.624058 208 24ft 0kts
13-Nov-23 14:27 35.103070 -120.624058 208 24ft 0kts
13-Nov-23 14:28 35.103070 -120.624058 208 24ft 0kts
13-Nov-23 14:29 35.103070 -120.624058 208 24ft 0kts
13-Nov-23 14:30 35.103070 -120.624058 208 24ft 0kts
13-Nov-23 14:31 35.103070 -120.624058 208 24ft 0kts
13-Nov-23 14:32 35.103070 -120.624058 208 24ft 0kts
13-Nov-23 14:33 35.103070 -120.624058 208 24ft 0kts
13-Nov-23 14:34 35.103070 -120.624058 208 24ft 0kts
13-Nov-23 14:35 35.103070 -120.624058 208 24ft 0kts
13-Nov-23 14:36 35.103070 -120.624058 208 24ft 0kts
13-Nov-23 14:37 35.103070 -120.624058 208 24ft 0kts
13-Nov-23 14:38 35.103070 -120.624058 208 24ft 0kts
13-Nov-23 14:39 35.103070 -120.624058 208 25ft 0kts
13-Nov-23 14:40 35.103070 -120.624058 208 25ft 0kts
13-Nov-23 14:41 35.103033 -120.624073 186 25ft 0kts
13-Nov-23 14:42 35.101340 -120.622931 124 26ft 18kts
13-Nov-23 14:43 35.099726 -120.619411 42 23ft 0kts
13-Nov-23 14:44 35.101924 -120.623018 301 43ft 65kts
13-Nov-23 14:45 35.100290 -120.638623 171 687ft 82kts
13-Nov-23 14:46 35.087906 -120.613118 120 1352ft 87kts
13-Nov-23 14:47 35.087699 -120.586092 76 2207ft 79kts
13-Nov-23 14:48 35.096380 -120.560569 82 2991ft 82kts
13-Nov-23 14:49 35.106831 -120.534806 86 3703ft 84kts
13-Nov-23 14:50 35.113401 -120.508104 90 4284ft 83kts
13-Nov-23 14:51 35.121946 -120.482786 88 5045ft 81kts
13-Nov-23 14:52 35.129540 -120.457515 92 5460ft 89kts
13-Nov-23 14:53 35.141447 -120.422473 89 5507ft 118kts
13-Nov-23 14:54 35.147956 -120.387841 96 5489ft 99kts
13-Nov-23 14:55 35.153597 -120.352918 96 5490ft 109kts
13-Nov-23 14:56 35.159037 -120.316906 96 5473ft 103kts
13-Nov-23 14:57 35.164566 -120.283637 105 5450ft 92kts
13-Nov-23 14:58 35.164812 -120.250447 106 5469ft 111kts
13-Nov-23 14:59 35.162490 -120.213298 112 5474ft 109kts
13-Nov-23 15:01 35.157183 -120.176354 113 5463ft 113kts
13-Nov-23 15:02 35.148227 -120.140869 118 5455ft 105kts
13-Nov-23 15:03 35.139287 -120.106879 118 5445ft 107kts
13-Nov-23 15:04 35.129299 -120.071564 118 5453ft 111kts
13-Nov-23 15:05 35.119141 -120.035958 118 5459ft 114kts
13-Nov-23 15:06 35.108372 -119.999001 118 5453ft 117kts
13-Nov-23 15:07 35.096345 -119.963193 130 5448ft 109kts
13-Nov-23 15:08 35.079442 -119.931149 136 5447ft 112kts
13-Nov-23 15:09 35.060493 -119.902769 142 5439ft 103kts
13-Nov-23 15:10 35.039812 -119.878203 142 5433ft 105kts
13-Nov-23 15:11 35.018505 -119.853471 142 5429ft 104kts
13-Nov-23 15:12 34.997686 -119.829183 139 4971ft 112kts
13-Nov-23 15:13 34.985295 -119.794078 116 4058ft 115kts
13-Nov-23 15:14 34.973096 -119.760727 123 3640ft 107kts
13-Nov-23 15:15 34.958605 -119.729445 128 3231ft 103kts
13-Nov-23 15:16 34.947989 -119.704570 123 2587ft 71kts
13-Nov-23 15:17 34.940205 -119.686370 116 2181ft 11kts
13-Nov-23 15:18 34.940998 -119.688205 296 2168ft 28kts
13-Nov-23 15:19 34.942715 -119.690489 171 2156ft 0kts
13-Nov-23 15:20 34.942715 -119.690489 171 2156ft 0kts
13-Nov-23 15:21 34.942715 -119.690489 171 2156ft 0kts

Navigation Log

Ident Type
Flight plan parsing failed, navigation log unavailable